Mile Branch, Mississippi
Current Conditions -  °F | °C
As of 7:53 PM on Sunday 21 Dec 2014 (Local Time) from KMCB Reporting Station
Overcast Overcast  
Wind Chill: 54°   Ceiling: 1800
Heat Index: 54°   Visibility: 10mi
Dew Point: 49°   Wind: 6mph
Humidity: 83%   Direction: 60°ENE
Pressure: 29.99"   Gusts: NA
Location:  31.4031°N, 90.8369°W
Report Text: KMCB 220153Z AUTO 06005KT 10SM OVC018 12/09 A2999 RMK AO2 SLP154 T01220094
Loading
Personal Weather Stations






























Interactive Weather Map New forecast layout! Learn more

10-Day Weather Forecast

Advertisements
Track Severe Weather on mobile